Time;durP1;ratioP1;P1;durP2;ratioP2;P2;SDS_P1;SDS_P2;PMS_P1;PMS_P2;Temp;Humidity;BMP_temperature;BMP_pressure;BME280_temperature;BME280_humidity;BME280_pressure;Samples;Min_cycle;Max_cycle;Signal;HPM_P1;HPM_P2
2021/08/17 00:00:31;;;;;;;10.33;6.00;;;12.60;99.90;;;;;;5109249;28;20465;-69
2021/08/17 00:02:59;;;;;;;9.97;6.33;;;12.60;99.90;;;;;;5110370;28;20444;-69
2021/08/17 00:05:26;;;;;;;8.80;7.33;;;12.50;99.90;;;;;;5109758;28;20451;-69
2021/08/17 00:07:53;;;;;;;11.70;6.33;;;12.40;99.90;;;;;;5109934;28;20472;-67
2021/08/17 00:10:20;;;;;;;11.90;7.73;;;12.40;99.90;;;;;;5109369;28;20495;-67
2021/08/17 00:12:48;;;;;;;9.57;6.37;;;12.40;99.90;;;;;;5110175;28;20449;-66
2021/08/17 00:15:15;;;;;;;9.40;6.40;;;12.40;99.90;;;;;;5109741;28;20473;-67
2021/08/17 00:17:42;;;;;;;10.10;6.10;;;12.30;99.90;;;;;;5110374;28;20516;-68
2021/08/17 00:20:12;;;;;;;11.80;6.73;;;12.40;99.90;;;;;;5108808;28;20911;-68
2021/08/17 00:22:39;;;;;;;13.17;8.20;;;12.40;99.90;;;;;;5109928;28;20475;-68
2021/08/17 00:25:08;;;;;;;9.63;6.73;;;12.40;99.90;;;;;;5109803;28;20452;-68
2021/08/17 00:27:35;;;;;;;12.97;6.90;;;12.40;99.90;;;;;;5110124;28;20452;-68
2021/08/17 00:30:01;;;;;;;10.73;7.50;;;12.40;99.90;;;;;;5109143;28;20465;-68
2021/08/17 00:32:28;;;;;;;13.87;7.30;;;12.50;99.90;;;;;;5110101;28;20594;-69
2021/08/17 00:34:56;;;;;;;12.87;6.90;;;12.50;99.90;;;;;;5110121;28;20540;-68
2021/08/17 00:37:24;;;;;;;12.53;7.13;;;12.50;99.90;;;;;;5113846;28;20449;-68
2021/08/17 00:39:51;;;;;;;10.80;6.40;;;12.50;99.90;;;;;;5112863;28;20452;-68
2021/08/17 00:42:18;;;;;;;13.63;7.80;;;12.50;99.90;;;;;;5112548;28;20441;-67
2021/08/17 00:44:45;;;;;;;11.90;7.30;;;12.50;99.90;;;;;;5113433;28;20803;-68
2021/08/17 00:47:13;;;;;;;14.50;7.27;;;12.50;99.90;;;;;;5113838;28;20445;-68
2021/08/17 00:49:40;;;;;;;13.67;7.57;;;12.60;99.90;;;;;;5113082;28;20445;-68
2021/08/17 00:52:08;;;;;;;11.67;7.50;;;12.50;99.90;;;;;;5113265;28;20994;-68
2021/08/17 00:54:40;;;;;;;11.00;7.90;;;12.50;99.90;;;;;;5113106;28;20458;-69
2021/08/17 00:57:06;;;;;;;13.33;6.97;;;12.50;99.90;;;;;;5113711;28;20444;-68
2021/08/17 00:59:34;;;;;;;13.20;8.20;;;12.60;99.90;;;;;;5112213;28;20444;-68
2021/08/17 01:02:01;;;;;;;13.67;7.63;;;12.60;99.90;;;;;;5113319;28;20496;-68
2021/08/17 01:04:28;;;;;;;12.67;7.67;;;12.50;99.90;;;;;;5112925;28;20543;-68
2021/08/17 01:06:55;;;;;;;21.70;8.60;;;12.60;99.90;;;;;;5113193;28;20544;-69
2021/08/17 01:09:22;;;;;;;12.17;7.53;;;12.60;99.90;;;;;;5112304;28;20977;-69
2021/08/17 01:11:50;;;;;;;10.70;6.83;;;12.50;99.90;;;;;;5112961;28;20575;-68
2021/08/17 01:14:19;;;;;;;10.10;6.83;;;12.40;99.90;;;;;;5112665;28;20452;-68
2021/08/17 01:16:47;;;;;;;13.60;7.70;;;12.40;99.90;;;;;;5113040;28;20452;-68
2021/08/17 01:19:17;;;;;;;11.77;6.93;;;12.30;99.90;;;;;;5112046;28;20475;-68
2021/08/17 01:21:44;;;;;;;13.47;8.20;;;12.20;99.90;;;;;;5112876;28;20840;-68
2021/08/17 01:24:11;;;;;;;12.33;7.10;;;12.20;99.90;;;;;;5112642;28;20442;-68
2021/08/17 01:26:40;;;;;;;14.90;7.33;;;12.10;99.90;;;;;;5112625;28;20520;-68
2021/08/17 01:29:10;;;;;;;11.90;6.67;;;12.00;99.90;;;;;;5112165;28;20441;-69
2021/08/17 01:31:37;;;;;;;10.77;7.23;;;11.90;99.90;;;;;;5112757;28;20477;-69
2021/08/17 01:34:04;;;;;;;11.03;7.13;;;11.90;99.90;;;;;;5112657;28;20467;-68
2021/08/17 01:36:31;;;;;;;11.57;7.43;;;11.90;99.90;;;;;;5112364;28;20453;-68
2021/08/17 01:38:58;;;;;;;12.87;6.50;;;11.90;99.90;;;;;;5112073;28;20460;-68
2021/08/17 01:41:25;;;;;;;10.70;7.37;;;11.80;99.90;;;;;;5112343;28;20465;-68
2021/08/17 01:43:54;;;;;;;9.90;6.83;;;11.80;99.90;;;;;;5112716;28;20455;-68
2021/08/17 01:46:21;;;;;;;12.93;7.73;;;11.80;99.90;;;;;;5111919;28;20977;-68
2021/08/17 01:48:47;;;;;;;17.40;7.83;;;11.80;99.90;;;;;;5112456;28;20976;-69
2021/08/17 01:51:14;;;;;;;10.67;6.27;;;11.70;99.90;;;;;;5111392;28;20481;-68
2021/08/17 01:53:41;;;;;;;12.13;6.87;;;11.60;99.90;;;;;;5112221;28;20524;-68
2021/08/17 01:56:10;;;;;;;11.97;8.00;;;11.60;99.90;;;;;;5111674;28;20438;-68
2021/08/17 01:58:37;;;;;;;13.27;6.63;;;11.50;99.90;;;;;;5112338;28;20533;-68
2021/08/17 02:01:07;;;;;;;13.77;7.57;;;11.50;99.90;;;;;;5111407;28;20832;-68
2021/08/17 02:03:35;;;;;;;10.37;6.70;;;11.50;99.90;;;;;;5112355;28;20441;-68
2021/08/17 02:06:03;;;;;;;12.67;7.37;;;11.50;99.90;;;;;;5111308;28;20445;-68
2021/08/17 02:08:29;;;;;;;13.20;7.60;;;11.40;99.90;;;;;;5111905;28;20445;-68
2021/08/17 02:10:56;;;;;;;13.00;7.33;;;11.40;99.90;;;;;;5111157;28;20498;-68
2021/08/17 02:13:24;;;;;;;12.10;6.90;;;11.30;99.90;;;;;;5112105;28;20505;-68
2021/08/17 02:15:52;;;;;;;13.07;7.30;;;11.30;99.90;;;;;;5111782;28;20456;-69
2021/08/17 02:18:20;;;;;;;15.60;7.80;;;11.20;99.90;;;;;;5112132;28;20970;-68
2021/08/17 02:20:47;;;;;;;19.40;8.93;;;11.30;99.90;;;;;;5110728;28;20483;-68
2021/08/17 02:23:14;;;;;;;13.37;7.80;;;11.20;99.90;;;;;;5111865;28;20449;-68
2021/08/17 02:25:41;;;;;;;13.23;7.93;;;11.20;99.90;;;;;;5111182;28;20449;-68
2021/08/17 02:28:08;;;;;;;11.10;6.70;;;11.20;99.90;;;;;;5111464;28;20452;-68
2021/08/17 02:30:35;;;;;;;12.17;6.83;;;11.10;99.90;;;;;;5110618;28;20477;-69
2021/08/17 02:33:02;;;;;;;14.10;7.43;;;11.10;99.90;;;;;;5111686;28;20826;-68
2021/08/17 02:35:30;;;;;;;9.90;5.80;;;11.10;99.90;;;;;;5110948;28;20524;-67
2021/08/17 02:37:57;;;;;;;11.40;6.97;;;11.00;99.90;;;;;;5111302;28;20449;-67
2021/08/17 02:40:24;;;;;;;11.97;7.20;;;11.00;99.90;;;;;;5110665;28;20465;-68
2021/08/17 02:42:51;;;;;;;12.40;7.50;;;11.00;99.90;;;;;;5111457;28;20438;-67
2021/08/17 02:45:17;;;;;;;12.90;7.77;;;11.00;99.90;;;;;;5110926;28;20890;-68
2021/08/17 02:47:44;;;;;;;10.30;7.23;;;10.90;99.90;;;;;;5111140;28;20509;-68
2021/08/17 02:50:11;;;;;;;13.63;8.30;;;10.90;99.90;;;;;;5110570;28;20897;-68
2021/08/17 02:52:40;;;;;;;12.13;7.20;;;10.90;99.90;;;;;;5111518;28;20479;-68
2021/08/17 02:55:10;;;;;;;13.53;8.10;;;10.90;99.90;;;;;;5111217;28;20451;-68
2021/08/17 02:57:37;;;;;;;14.33;8.07;;;10.90;99.90;;;;;;5110604;28;20448;-69
2021/08/17 03:00:05;;;;;;;11.97;7.50;;;10.90;99.90;;;;;;5110262;28;20467;-67
2021/08/17 03:02:32;;;;;;;14.33;7.50;;;10.90;99.90;;;;;;5111216;28;20437;-68
2021/08/17 03:04:59;;;;;;;13.73;7.30;;;10.90;99.90;;;;;;5110725;28;20453;-68
2021/08/17 03:07:26;;;;;;;26.70;9.67;;;10.90;99.90;;;;;;5111129;28;20445;-68
2021/08/17 03:09:54;;;;;;;16.20;8.20;;;10.90;99.90;;;;;;5110222;28;20476;-68
2021/08/17 03:12:21;;;;;;;30.20;9.30;;;10.80;99.90;;;;;;5111128;28;20469;-69
2021/08/17 03:14:48;;;;;;;16.70;8.63;;;10.80;99.90;;;;;;5110361;28;20453;-68
2021/08/17 03:17:15;;;;;;;14.40;8.50;;;10.80;99.90;;;;;;5110862;28;20441;-68
2021/08/17 03:19:42;;;;;;;12.80;7.83;;;10.80;99.90;;;;;;5109633;28;20449;-68
2021/08/17 03:22:09;;;;;;;17.17;8.67;;;10.70;99.90;;;;;;5110815;28;20828;-68
2021/08/17 03:24:36;;;;;;;10.70;6.90;;;10.80;99.90;;;;;;5110200;28;20476;-69
2021/08/17 03:27:04;;;;;;;16.53;8.10;;;10.80;99.90;;;;;;5110692;28;20453;-68
2021/08/17 03:29:31;;;;;;;12.30;8.27;;;10.70;99.90;;;;;;5109760;28;20443;-68
2021/08/17 03:31:58;;;;;;;12.13;7.70;;;10.70;99.90;;;;;;5110634;28;20647;-68
2021/08/17 03:34:25;;;;;;;11.97;6.50;;;10.70;99.90;;;;;;5110275;28;20451;-68
2021/08/17 03:36:51;;;;;;;13.30;8.20;;;10.60;99.90;;;;;;5110225;28;20456;-69
2021/08/17 03:39:18;;;;;;;11.67;8.13;;;10.70;99.90;;;;;;5110401;28;20445;-68
2021/08/17 03:41:45;;;;;;;15.07;7.90;;;10.60;99.90;;;;;;5110621;28;20462;-68
2021/08/17 03:44:13;;;;;;;16.53;7.70;;;10.60;99.90;;;;;;5110891;28;20444;-68
2021/08/17 03:46:40;;;;;;;23.53;9.00;;;10.60;99.90;;;;;;5111122;28;20467;-68
2021/08/17 03:49:07;;;;;;;12.40;6.90;;;10.50;99.90;;;;;;5109499;28;20437;-69
2021/08/17 03:51:34;;;;;;;14.23;7.67;;;10.50;99.90;;;;;;5110252;28;20572;-68
2021/08/17 03:54:00;;;;;;;12.40;7.00;;;10.60;99.90;;;;;;5110362;28;20813;-68
2021/08/17 03:56:27;;;;;;;10.67;6.73;;;10.60;99.90;;;;;;5109869;28;20540;-69
2021/08/17 03:58:54;;;;;;;13.10;6.30;;;10.60;99.90;;;;;;5110075;28;20556;-69
2021/08/17 04:01:22;;;;;;;11.50;7.30;;;10.60;99.90;;;;;;5109306;28;20470;-67
2021/08/17 04:03:49;;;;;;;10.97;6.40;;;10.60;99.90;;;;;;5110354;28;20445;-68
2021/08/17 04:06:16;;;;;;;11.77;7.30;;;10.60;99.90;;;;;;5109741;28;20437;-68
2021/08/17 04:08:43;;;;;;;12.70;7.17;;;10.50;99.90;;;;;;5110131;28;20955;-68
2021/08/17 04:11:10;;;;;;;15.80;7.00;;;10.60;99.90;;;;;;5112204;28;20556;-68
2021/08/17 04:13:37;;;;;;;11.83;7.50;;;10.60;99.90;;;;;;5114557;28;20499;-68
2021/08/17 04:16:04;;;;;;;10.50;6.00;;;10.60;99.90;;;;;;5113849;28;20453;-68
2021/08/17 04:18:33;;;;;;;12.40;6.33;;;10.50;99.90;;;;;;5113973;28;20441;-67
2021/08/17 04:21:00;;;;;;;15.57;6.87;;;10.60;99.90;;;;;;5113706;28;20468;-67
2021/08/17 04:23:26;;;;;;;12.20;8.03;;;10.50;99.90;;;;;;5114575;28;20532;-69
2021/08/17 04:25:53;;;;;;;10.60;6.70;;;10.50;99.90;;;;;;5113627;28;20463;-68
2021/08/17 04:28:20;;;;;;;11.23;6.30;;;10.60;99.90;;;;;;5113892;28;20443;-68
2021/08/17 04:30:47;;;;;;;9.77;6.33;;;10.60;99.90;;;;;;5113011;28;20497;-68
2021/08/17 04:33:14;;;;;;;10.23;6.30;;;10.60;99.90;;;;;;5113332;28;20481;-68
2021/08/17 04:35:42;;;;;;;9.47;6.10;;;10.60;99.90;;;;;;5113228;28;20476;-68
2021/08/17 04:38:09;;;;;;;10.10;6.17;;;10.60;99.90;;;;;;5113250;28;21002;-68
2021/08/17 04:40:35;;;;;;;11.83;6.10;;;10.60;99.90;;;;;;5112723;28;20468;-68
2021/08/17 04:43:02;;;;;;;12.70;7.17;;;10.60;99.90;;;;;;5113580;28;20512;-68
2021/08/17 04:45:29;;;;;;;11.10;5.93;;;10.60;99.90;;;;;;5113091;28;20452;-68
2021/08/17 04:47:56;;;;;;;10.00;7.03;;;10.60;99.90;;;;;;5113183;28;20520;-68
2021/08/17 04:50:23;;;;;;;9.60;5.80;;;10.50;99.90;;;;;;5112515;28;20986;-68
2021/08/17 04:52:51;;;;;;;11.07;5.53;;;10.50;99.90;;;;;;5113139;28;20487;-69
2021/08/17 04:55:19;;;;;;;9.23;5.47;;;10.50;99.90;;;;;;5112976;28;20445;-68
2021/08/17 04:57:50;;;;;;;10.50;5.40;;;10.50;99.90;;;;;;5113684;28;20510;-68
2021/08/17 05:00:17;;;;;;;8.53;4.87;;;10.50;99.90;;;;;;5112354;28;20496;-68
2021/08/17 05:02:44;;;;;;;9.50;6.17;;;10.50;99.90;;;;;;5113500;28;20545;-69
2021/08/17 05:05:11;;;;;;;10.67;5.57;;;10.50;99.90;;;;;;5112928;28;20451;-68
2021/08/17 05:07:39;;;;;;;10.67;6.00;;;10.50;99.90;;;;;;5113412;28;20452;-68
2021/08/17 05:10:09;;;;;;;13.77;5.63;;;10.60;99.90;;;;;;5112359;28;20471;-68
2021/08/17 05:12:36;;;;;;;10.13;5.87;;;10.60;99.90;;;;;;5113074;28;20481;-68
2021/08/17 05:15:04;;;;;;;9.63;6.60;;;10.60;99.90;;;;;;5112648;28;20865;-68
2021/08/17 05:17:32;;;;;;;11.03;6.17;;;10.60;99.90;;;;;;5113030;28;20484;-68
2021/08/17 05:19:59;;;;;;;8.80;5.57;;;10.60;99.90;;;;;;5111605;28;20611;-68
2021/08/17 05:22:26;;;;;;;9.20;6.03;;;10.60;99.90;;;;;;5112475;28;20537;-68
2021/08/17 05:24:53;;;;;;;11.07;6.30;;;10.60;99.90;;;;;;5112188;28;20442;-68
2021/08/17 05:27:21;;;;;;;8.20;5.27;;;10.70;99.90;;;;;;5112668;28;20864;-68
2021/08/17 05:29:50;;;;;;;11.90;6.37;;;10.70;99.90;;;;;;5111806;28;20438;-68
2021/08/17 05:32:17;;;;;;;12.07;6.53;;;10.80;99.90;;;;;;5112180;28;20509;-68
2021/08/17 05:34:44;;;;;;;9.77;5.73;;;10.80;99.90;;;;;;5111702;28;20524;-67
2021/08/17 05:37:11;;;;;;;9.57;5.67;;;10.80;99.90;;;;;;5112153;28;20441;-68
2021/08/17 05:39:38;;;;;;;10.67;6.73;;;10.90;99.90;;;;;;5111182;28;20871;-67
2021/08/17 05:42:05;;;;;;;10.17;6.87;;;10.90;99.90;;;;;;5111936;28;20444;-68
2021/08/17 05:44:33;;;;;;;9.43;6.63;;;11.00;99.90;;;;;;5112186;28;20445;-68
2021/08/17 05:47:00;;;;;;;10.03;6.60;;;11.00;99.90;;;;;;5112250;28;20460;-69
2021/08/17 05:49:27;;;;;;;11.47;6.00;;;11.10;99.90;;;;;;5111211;28;20504;-68
2021/08/17 05:51:54;;;;;;;10.95;6.55;;;11.20;99.90;;;;;;5111484;28;20994;-68
2021/08/17 05:54:23;;;;;;;11.10;6.70;;;11.30;99.90;;;;;;5111101;28;20445;-67
2021/08/17 05:56:50;;;;;;;9.27;5.97;;;11.30;99.90;;;;;;5111571;28;20445;-67
2021/08/17 05:59:16;;;;;;;6.77;4.97;;;11.40;99.90;;;;;;5110904;28;20524;-67
2021/08/17 06:01:45;;;;;;;7.63;5.30;;;11.50;99.90;;;;;;5111361;28;20461;-68
2021/08/17 06:04:11;;;;;;;13.10;5.70;;;11.60;99.90;;;;;;5111610;28;20452;-67
2021/08/17 06:06:38;;;;;;;8.93;6.00;;;11.60;99.90;;;;;;5111616;28;20448;-68
2021/08/17 06:09:05;;;;;;;8.03;5.33;;;11.70;99.90;;;;;;5110857;28;20449;-69
2021/08/17 06:11:32;;;;;;;10.50;5.63;;;11.70;99.90;;;;;;5111466;28;20552;-68
2021/08/17 06:13:59;;;;;;;8.60;5.43;;;11.80;99.90;;;;;;5111099;28;20493;-68
2021/08/17 06:16:26;;;;;;;11.80;7.17;;;11.80;99.90;;;;;;5111050;28;20841;-68
2021/08/17 06:18:55;;;;;;;8.60;5.50;;;11.90;99.90;;;;;;5110761;28;20445;-68
2021/08/17 06:21:22;;;;;;;8.23;5.37;;;12.00;99.90;;;;;;5110705;28;20964;-68
2021/08/17 06:23:49;;;;;;;10.87;6.80;;;12.10;99.90;;;;;;5110918;28;21025;-68
2021/08/17 06:26:17;;;;;;;9.07;5.80;;;12.30;99.90;;;;;;5110655;28;20452;-69
2021/08/17 06:28:44;;;;;;;8.80;6.13;;;12.30;99.90;;;;;;5110837;28;20874;-68
2021/08/17 06:31:12;;;;;;;7.97;5.33;;;12.40;99.90;;;;;;5109920;28;21039;-68
2021/08/17 06:33:39;;;;;;;9.73;4.90;;;12.50;99.90;;;;;;5110287;28;20487;-69
2021/08/17 06:36:07;;;;;;;6.93;5.93;;;12.50;99.90;;;;;;5110801;28;20437;-68
2021/08/17 06:38:34;;;;;;;9.53;5.67;;;12.60;99.90;;;;;;5110929;28;20529;-68
2021/08/17 06:41:02;;;;;;;9.70;6.13;;;12.70;99.90;;;;;;5108894;28;20473;-68
2021/08/17 06:43:29;;;;;;;8.77;5.47;;;12.70;99.90;;;;;;5111017;28;20516;-68
2021/08/17 06:45:56;;;;;;;11.60;7.00;;;12.80;99.90;;;;;;5110431;28;21001;-68
2021/08/17 06:48:23;;;;;;;9.37;6.17;;;13.00;99.90;;;;;;5110835;28;20540;-68
2021/08/17 06:50:50;;;;;;;9.70;5.80;;;13.10;99.90;;;;;;5110143;28;20564;-68
2021/08/17 06:53:18;;;;;;;8.70;6.00;;;13.20;99.90;;;;;;5110376;28;20568;-67
2021/08/17 06:55:45;;;;;;;11.50;5.97;;;13.30;99.90;;;;;;5110337;28;20567;-68
2021/08/17 06:58:13;;;;;;;9.57;5.70;;;13.30;99.90;;;;;;5110739;28;20447;-68
2021/08/17 07:00:41;;;;;;;7.13;5.00;;;13.30;99.90;;;;;;5109669;28;20465;-68
2021/08/17 07:03:08;;;;;;;8.47;5.30;;;13.30;99.90;;;;;;5110400;28;20611;-68
2021/08/17 07:05:35;;;;;;;7.90;6.07;;;13.30;99.90;;;;;;5110441;28;20634;-68
2021/08/17 07:08:02;;;;;;;9.80;5.87;;;13.30;99.90;;;;;;5110704;28;20457;-69
2021/08/17 07:10:30;;;;;;;8.40;5.13;;;13.30;99.90;;;;;;5109859;28;20497;-68
2021/08/17 07:12:57;;;;;;;9.00;5.70;;;13.40;99.90;;;;;;5110723;28;20481;-69
2021/08/17 07:15:24;;;;;;;9.00;5.50;;;13.50;99.90;;;;;;5110723;28;20437;-68
2021/08/17 07:17:51;;;;;;;9.40;6.47;;;13.60;99.90;;;;;;5110797;28;20540;-68
2021/08/17 07:20:18;;;;;;;8.17;6.17;;;13.80;99.90;;;;;;5109562;28;20532;-68
2021/08/17 07:22:45;;;;;;;9.10;6.17;;;13.80;99.90;;;;;;5110486;28;20514;-68
2021/08/17 07:25:12;;;;;;;8.30;5.87;;;14.00;99.90;;;;;;5110281;28;20433;-68
2021/08/17 07:27:41;;;;;;;12.03;6.07;;;14.10;99.90;;;;;;5110515;28;20537;-68
2021/08/17 07:30:12;;;;;;;9.23;6.70;;;14.20;99.90;;;;;;5109902;28;20488;-68
2021/08/17 07:32:39;;;;;;;9.97;6.27;;;14.30;99.90;;;;;;5110757;28;21216;-68
2021/08/17 07:35:08;;;;;;;7.87;5.53;;;14.30;99.90;;;;;;5110080;28;20445;-67
2021/08/17 07:37:35;;;;;;;9.07;6.00;;;14.40;99.90;;;;;;5110181;28;21030;-68
2021/08/17 07:40:02;;;;;;;10.93;6.97;;;14.40;99.90;;;;;;5109168;28;20467;-68
2021/08/17 07:42:28;;;;;;;9.70;6.30;;;14.60;99.90;;;;;;5109915;28;20501;-68
2021/08/17 07:44:57;;;;;;;8.73;6.37;;;14.80;99.90;;;;;;5112226;28;21037;-68
2021/08/17 07:47:24;;;;;;;9.43;7.10;;;15.00;99.90;;;;;;5114027;28;20528;-68
2021/08/17 07:49:50;;;;;;;8.83;6.00;;;15.20;99.90;;;;;;5113437;28;20456;-68
2021/08/17 07:52:17;;;;;;;8.30;6.37;;;15.40;99.90;;;;;;5114124;28;20449;-68
2021/08/17 07:54:44;;;;;;;7.67;5.90;;;15.80;99.90;;;;;;5113756;28;20481;-68
2021/08/17 07:57:11;;;;;;;10.10;6.57;;;16.00;99.90;;;;;;5113845;28;20544;-68
2021/08/17 07:59:38;;;;;;;6.60;5.70;;;16.00;99.90;;;;;;5112870;28;20437;-68
2021/08/17 08:02:06;;;;;;;8.97;5.90;;;15.90;99.90;;;;;;5113295;28;20457;-68
2021/08/17 08:04:33;;;;;;;9.87;6.70;;;15.80;99.90;;;;;;5113442;28;20451;-68
2021/08/17 08:07:00;;;;;;;9.67;6.63;;;15.60;99.90;;;;;;5113874;28;20451;-68
2021/08/17 08:09:27;;;;;;;10.40;5.63;;;15.50;99.90;;;;;;5112980;28;20445;-68
2021/08/17 08:11:53;;;;;;;10.57;6.00;;;15.40;99.90;;;;;;5113379;28;20544;-67
2021/08/17 08:14:20;;;;;;;9.17;6.00;;;15.20;99.90;;;;;;5113044;28;20931;-68
2021/08/17 08:16:47;;;;;;;8.90;6.67;;;15.10;99.90;;;;;;5113395;27;20838;-68
2021/08/17 08:19:15;;;;;;;8.40;5.50;;;15.30;99.90;;;;;;5112853;28;21005;-68
2021/08/17 08:21:42;;;;;;;9.97;6.27;;;15.60;99.90;;;;;;5113308;28;20497;-68
2021/08/17 08:24:09;;;;;;;7.40;5.80;;;16.00;99.90;;;;;;5113290;28;20494;-68
2021/08/17 08:26:36;;;;;;;10.57;6.20;;;16.40;99.90;;;;;;5113262;28;20450;-68
2021/08/17 08:29:03;;;;;;;10.70;5.43;;;16.70;99.90;;;;;;5112429;28;20975;-68
2021/08/17 08:31:29;;;;;;;9.83;6.00;;;17.00;99.90;;;;;;5113074;28;20552;-68
2021/08/17 08:33:56;;;;;;;9.70;6.60;;;17.00;99.90;;;;;;5113182;28;20472;-68
2021/08/17 08:36:26;;;;;;;9.07;6.43;;;16.90;99.90;;;;;;5112765;28;20445;-68
2021/08/17 08:38:52;;;;;;;10.93;5.73;;;16.90;99.90;;;;;;5113515;28;20448;-68
2021/08/17 08:41:20;;;;;;;8.00;5.43;;;17.00;99.90;;;;;;5112618;28;20552;-68
2021/08/17 08:43:48;;;;;;;8.20;5.47;;;17.00;99.90;;;;;;5113465;28;20445;-68
2021/08/17 08:46:17;;;;;;;9.00;5.60;;;17.20;99.90;;;;;;5113069;28;20741;-68
2021/08/17 08:48:47;;;;;;;7.00;5.40;;;17.50;99.90;;;;;;5113407;28;20452;-68
2021/08/17 08:51:14;;;;;;;8.57;5.47;;;17.50;99.90;;;;;;5112809;28;20471;-68
2021/08/17 08:53:43;;;;;;;7.67;5.70;;;17.70;99.90;;;;;;5113876;28;20520;-68
2021/08/17 08:56:10;;;;;;;6.73;5.27;;;17.50;99.90;;;;;;5112322;28;20464;-68
2021/08/17 08:58:37;;;;;;;8.43;5.90;;;17.10;99.90;;;;;;5113641;28;20856;-68
2021/08/17 09:01:04;;;;;;;10.20;7.17;;;17.00;99.90;;;;;;5112364;28;21004;-69
2021/08/17 09:03:42;;;;;;;12.40;6.93;;;17.10;99.90;;;;;;5113958;28;20517;-69
2021/08/17 09:06:16;;;;;;;8.80;5.87;;;17.20;99.90;;;;;;5113676;28;20447;-68
2021/08/17 09:08:45;;;;;;;8.83;5.90;;;17.20;99.90;;;;;;5113525;28;20512;-69
2021/08/17 09:11:19;;;;;;;7.67;5.60;;;17.40;99.90;;;;;;5112165;28;20461;-68
2021/08/17 09:13:47;;;;;;;9.57;6.40;;;17.50;99.90;;;;;;5113105;28;20480;-69
2021/08/17 09:16:25;;;;;;;10.73;6.00;;;17.60;99.90;;;;;;5112344;28;20529;-68
2021/08/17 09:18:53;;;;;;;7.20;5.90;;;17.50;99.90;;;;;;5112149;28;20460;-69
2021/08/17 09:21:34;;;;;;;7.17;5.33;;;17.90;99.90;;;;;;5111803;28;20469;-69
2021/08/17 09:24:13;;;;;;;7.90;5.83;;;18.10;99.90;;;;;;5112678;28;20457;-68
2021/08/17 09:26:46;;;;;;;8.33;5.13;;;18.20;99.90;;;;;;5112842;28;20800;-68
2021/08/17 09:29:25;;;;;;;8.37;5.47;;;18.50;99.90;;;;;;5112008;28;20418;-68
2021/08/17 09:31:54;;;;;;;9.10;6.13;;;18.90;99.90;;;;;;5112522;28;20562;-69
2021/08/17 09:34:24;;;;;;;9.93;6.27;;;18.80;99.90;;;;;;5112061;28;20572;-68
2021/08/17 09:36:51;;;;;;;9.87;6.07;;;18.70;99.90;;;;;;5112380;28;20480;-69
2021/08/17 09:39:31;;;;;;;7.00;5.70;;;18.60;99.90;;;;;;5112185;28;20457;-70
2021/08/17 09:42:13;;;;;;;6.83;5.33;;;18.50;99.90;;;;;;5112183;28;20519;-68
2021/08/17 09:44:41;;;;;;;7.53;5.17;;;18.40;99.90;;;;;;5111627;28;20544;-68
2021/08/17 09:47:08;;;;;;;7.50;5.40;;;18.60;99.90;;;;;;5112009;28;20482;-69
2021/08/17 09:49:36;;;;;;;9.87;6.13;;;18.80;99.90;;;;;;5111092;28;20448;-69
2021/08/17 09:52:12;;;;;;;6.13;4.40;;;19.20;99.90;;;;;;5111744;28;21288;-69
2021/08/17 09:54:42;;;;;;;7.40;5.23;;;19.10;99.90;;;;;;5111033;28;20483;-68
2021/08/17 09:57:10;;;;;;;8.30;5.47;;;19.00;99.90;;;;;;5111845;28;20452;-69
2021/08/17 09:59:39;;;;;;;5.17;4.33;;;18.80;99.90;;;;;;5110701;28;20433;-68
2021/08/17 10:02:06;;;;;;;7.10;5.30;;;18.70;99.90;;;;;;5112026;28;20451;-68
2021/08/17 10:04:34;;;;;;;8.70;5.90;;;18.60;99.90;;;;;;5111378;28;20440;-68
2021/08/17 10:07:03;;;;;;;7.07;4.80;;;18.40;99.90;;;;;;5111290;28;20632;-68
2021/08/17 10:09:31;;;;;;;8.50;5.27;;;18.40;99.90;;;;;;5110836;28;20548;-68
2021/08/17 10:12:00;;;;;;;6.13;4.97;;;18.30;99.90;;;;;;5111525;28;20500;-69
2021/08/17 10:14:28;;;;;;;8.00;4.90;;;18.50;99.90;;;;;;5111020;28;20473;-68
2021/08/17 10:16:56;;;;;;;6.83;4.70;;;18.70;99.90;;;;;;5111143;28;20758;-69
2021/08/17 10:19:26;;;;;;;9.90;4.90;;;18.70;99.90;;;;;;5109984;28;20449;-69
2021/08/17 10:21:57;;;;;;;7.20;4.60;;;18.70;99.90;;;;;;5111527;28;20465;-68
2021/08/17 10:24:25;;;;;;;6.13;4.17;;;18.60;99.90;;;;;;5110871;28;20434;-68
2021/08/17 10:27:18;;;;;;;7.17;4.90;;;18.40;99.90;;;;;;5110834;28;20528;-68
2021/08/17 10:30:11;;;;;;;7.40;4.73;;;18.50;99.90;;;;;;5110078;28;20456;-68
2021/08/17 10:32:48;;;;;;;6.53;4.60;;;18.60;99.90;;;;;;5091656;28;20453;-68
2021/08/17 10:35:51;;;;;;;6.27;5.07;;;18.90;99.90;;;;;;5110334;28;20457;-68
2021/08/17 10:38:53;;;;;;;5.70;4.33;;;19.00;99.90;;;;;;5111075;28;20531;-67
2021/08/17 10:41:31;;;;;;;6.00;4.07;;;19.40;99.90;;;;;;5110028;28;20471;-68
2021/08/17 10:44:19;;;;;;;6.40;4.33;;;19.50;99.20;;;;;;5110944;28;20425;-68
2021/08/17 10:46:55;;;;;;;5.13;4.30;;;19.40;99.90;;;;;;5110412;28;20494;-68
2021/08/17 10:49:43;;;;;;;6.20;4.03;;;19.10;98.00;;;;;;5109857;28;20807;-69
2021/08/17 10:52:12;;;;;;;7.50;4.73;;;19.30;97.90;;;;;;5110545;28;20452;-68
2021/08/17 10:54:40;;;;;;;7.13;5.10;;;19.80;99.20;;;;;;5109861;28;20623;-69
2021/08/17 10:57:20;;;;;;;6.47;4.03;;;20.40;98.70;;;;;;5110038;28;20473;-69
2021/08/17 10:59:49;;;;;;;5.50;3.77;;;20.90;97.10;;;;;;5109629;28;20497;-69
2021/08/17 11:02:21;;;;;;;5.93;4.30;;;20.70;96.60;;;;;;5110362;28;20467;-69
2021/08/17 11:04:49;;;;;;;7.40;4.53;;;20.90;96.50;;;;;;5109936;28;20524;-68
2021/08/17 11:07:31;;;;;;;7.43;4.27;;;20.80;96.00;;;;;;5110097;28;20441;-68
2021/08/17 11:10:00;;;;;;;6.13;3.40;;;20.60;96.50;;;;;;5109515;28;20441;-68
2021/08/17 11:12:32;;;;;;;5.60;4.17;;;20.60;96.10;;;;;;5110371;28;20448;-68
2021/08/17 11:15:01;;;;;;;5.60;3.63;;;20.70;96.10;;;;;;5109843;28;20509;-69
2021/08/17 11:17:28;;;;;;;5.63;3.70;;;21.00;96.10;;;;;;5110286;28;20445;-68
2021/08/17 11:19:56;;;;;;;4.63;3.70;;;20.70;95.60;;;;;;5108738;28;20892;-68
2021/08/17 11:22:25;;;;;;;7.60;4.70;;;20.30;96.20;;;;;;5110086;28;20434;-68
2021/08/17 11:24:54;;;;;;;5.03;3.70;;;20.40;98.60;;;;;;5110164;28;20437;-68
2021/08/17 11:27:23;;;;;;;7.50;4.10;;;20.50;95.90;;;;;;5110227;28;20828;-68
2021/08/17 11:29:52;;;;;;;6.07;4.13;;;20.50;95.10;;;;;;5109023;28;20438;-69
2021/08/17 11:32:29;;;;;;;5.57;3.67;;;20.80;95.10;;;;;;5110209;28;20445;-69
2021/08/17 11:34:58;;;;;;;5.23;3.80;;;21.00;94.80;;;;;;5109889;28;20484;-69
2021/08/17 11:37:25;;;;;;;5.40;3.83;;;21.70;95.20;;;;;;5110219;28;20441;-68
2021/08/17 11:39:54;;;;;;;6.33;4.30;;;22.10;95.40;;;;;;5109054;28;20969;-68
2021/08/17 11:42:23;;;;;;;6.47;4.33;;;22.40;93.80;;;;;;5110042;28;20445;-69
2021/08/17 11:44:52;;;;;;;6.60;4.20;;;22.90;92.80;;;;;;5109950;28;20754;-69
2021/08/17 11:47:20;;;;;;;5.73;4.10;;;23.00;93.70;;;;;;5109690;28;20487;-69
2021/08/17 11:49:50;;;;;;;5.37;3.47;;;22.70;92.60;;;;;;5108691;28;20449;-69
2021/08/17 11:52:19;;;;;;;5.30;3.27;;;22.70;92.00;;;;;;5109971;28;20437;-69
2021/08/17 11:54:51;;;;;;;6.00;4.30;;;22.60;91.60;;;;;;5109421;28;20887;-68
2021/08/17 11:57:21;;;;;;;4.47;3.23;;;22.80;92.10;;;;;;5109543;28;20433;-69
2021/08/17 11:59:50;;;;;;;5.40;3.60;;;22.70;90.30;;;;;;5108867;28;20528;-69
2021/08/17 12:02:23;;;;;;;4.70;3.50;;;23.00;90.30;;;;;;5109633;28;20935;-68
2021/08/17 12:04:54;;;;;;;4.80;3.30;;;23.00;90.90;;;;;;5109710;28;20445;-69
2021/08/17 12:07:21;;;;;;;4.80;3.10;;;23.10;88.30;;;;;;5109899;28;20536;-69
2021/08/17 12:09:48;;;;;;;6.93;3.50;;;22.90;87.70;;;;;;5108603;28;20449;-69
2021/08/17 12:12:17;;;;;;;4.93;3.20;;;23.00;89.30;;;;;;5109938;28;20475;-69
2021/08/17 12:14:45;;;;;;;5.10;3.33;;;23.30;90.30;;;;;;5109351;28;20476;-69
2021/08/17 12:17:20;;;;;;;6.03;3.73;;;23.00;88.30;;;;;;5109714;28;20547;-68
2021/08/17 12:19:53;;;;;;;5.37;3.40;;;23.10;90.20;;;;;;5108570;28;20553;-69
2021/08/17 12:22:28;;;;;;;5.43;3.20;;;23.20;88.50;;;;;;5109051;28;20440;-69
2021/08/17 12:24:56;;;;;;;6.43;3.40;;;23.80;90.50;;;;;;5109417;28;20440;-69
2021/08/17 12:27:25;;;;;;;4.00;2.60;;;24.30;85.60;;;;;;5109585;28;20445;-68
2021/08/17 12:29:53;;;;;;;5.30;3.47;;;24.20;84.00;;;;;;5108568;28;20441;-69
2021/08/17 12:32:21;;;;;;;4.80;3.40;;;24.90;84.50;;;;;;5113514;28;20440;-69
2021/08/17 12:34:51;;;;;;;4.93;3.17;;;25.20;80.60;;;;;;5112745;28;21074;-69
2021/08/17 12:37:31;;;;;;;4.10;3.13;;;24.90;79.90;;;;;;5113702;28;20441;-69
2021/08/17 12:40:00;;;;;;;3.97;2.80;;;25.10;83.10;;;;;;5112163;28;20448;-69
2021/08/17 12:42:27;;;;;;;5.70;3.50;;;25.80;79.90;;;;;;5111188;28;20630;-69
2021/08/17 12:44:55;;;;;;;5.73;4.00;;;26.00;77.40;;;;;;5112401;28;20533;-69
2021/08/17 12:47:25;;;;;;;5.17;3.47;;;25.20;77.30;;;;;;5113139;28;20448;-69
2021/08/17 12:49:54;;;;;;;5.20;3.60;;;25.40;80.60;;;;;;5111871;28;20441;-68